sensor_id;sensor_type;location;lat;lon;timestamp;noise_LAeq;noise_LA_min;noise_LA_max;noise_LA01;noise_LA95
18377;Laerm;9315;52.624;13.544;2023-04-22T00:01:32;51.65;37.52;69.55;;
18377;Laerm;9315;52.624;13.544;2023-04-22T00:03:59;58.61;37.14;75.15;;
18377;Laerm;9315;52.624;13.544;2023-04-22T00:06:27;63.23;37.30;78.85;;
18377;Laerm;9315;52.624;13.544;2023-04-22T00:08:54;54.59;37.12;71.78;;
18377;Laerm;9315;52.624;13.544;2023-04-22T00:11:21;40.51;36.28;44.83;;
18377;Laerm;9315;52.624;13.544;2023-04-22T00:13:48;60.12;37.52;74.95;;
18377;Laerm;9315;52.624;13.544;2023-04-22T00:16:15;56.23;36.64;77.14;;
18377;Laerm;9315;52.624;13.544;2023-04-22T00:18:43;40.31;34.98;48.28;;
18377;Laerm;9315;52.624;13.544;2023-04-22T00:21:10;41.18;36.84;56.00;;
18377;Laerm;9315;52.624;13.544;2023-04-22T00:23:37;40.06;35.98;46.64;;
18377;Laerm;9315;52.624;13.544;2023-04-22T00:26:04;41.20;36.82;46.10;;
18377;Laerm;9315;52.624;13.544;2023-04-22T00:28:32;41.19;37.41;47.60;;
18377;Laerm;9315;52.624;13.544;2023-04-22T00:30:59;57.58;38.09;74.03;;
18377;Laerm;9315;52.624;13.544;2023-04-22T00:33:30;47.56;37.91;62.67;;
18377;Laerm;9315;52.624;13.544;2023-04-22T00:35:57;54.64;36.41;74.38;;
18377;Laerm;9315;52.624;13.544;2023-04-22T00:38:24;42.02;37.69;46.35;;
18377;Laerm;9315;52.624;13.544;2023-04-22T00:40:51;54.01;35.93;72.76;;
18377;Laerm;9315;52.624;13.544;2023-04-22T00:43:18;55.94;36.96;72.19;;
18377;Laerm;9315;52.624;13.544;2023-04-22T00:45:45;46.66;37.42;61.39;;
18377;Laerm;9315;52.624;13.544;2023-04-22T00:48:13;42.71;38.35;48.97;;
18377;Laerm;9315;52.624;13.544;2023-04-22T00:50:40;58.23;37.72;74.17;;
18377;Laerm;9315;52.624;13.544;2023-04-22T00:53:07;41.38;37.46;46.92;;
18377;Laerm;9315;52.624;13.544;2023-04-22T00:55:34;54.26;35.93;73.00;;
18377;Laerm;9315;52.624;13.544;2023-04-22T00:58:02;39.70;35.12;45.98;;
18377;Laerm;9315;52.624;13.544;2023-04-22T01:00:30;39.66;35.82;46.31;;
18377;Laerm;9315;52.624;13.544;2023-04-22T01:02:57;51.18;37.28;72.05;;
18377;Laerm;9315;52.624;13.544;2023-04-22T01:05:25;55.35;37.12;70.53;;
18377;Laerm;9315;52.624;13.544;2023-04-22T01:07:52;41.57;37.00;46.69;;
18377;Laerm;9315;52.624;13.544;2023-04-22T01:10:20;42.08;38.17;58.25;;
18377;Laerm;9315;52.624;13.544;2023-04-22T01:12:47;41.64;37.62;46.62;;
18377;Laerm;9315;52.624;13.544;2023-04-22T01:15:14;59.47;39.06;75.35;;
18377;Laerm;9315;52.624;13.544;2023-04-22T01:17:41;53.66;37.01;69.83;;
18377;Laerm;9315;52.624;13.544;2023-04-22T01:20:09;52.86;37.32;71.32;;
18377;Laerm;9315;52.624;13.544;2023-04-22T01:22:43;41.43;36.65;48.91;;
18377;Laerm;9315;52.624;13.544;2023-04-22T01:25:11;64.10;37.21;79.23;;
18377;Laerm;9315;52.624;13.544;2023-04-22T01:27:39;59.40;36.78;80.26;;
18377;Laerm;9315;52.624;13.544;2023-04-22T01:30:08;57.06;38.10;72.28;;
18377;Laerm;9315;52.624;13.544;2023-04-22T01:32:35;52.97;37.00;68.64;;
18377;Laerm;9315;52.624;13.544;2023-04-22T01:35:03;39.94;35.33;47.52;;
18377;Laerm;9315;52.624;13.544;2023-04-22T01:37:30;47.09;36.96;61.22;;
18377;Laerm;9315;52.624;13.544;2023-04-22T01:39:58;60.03;38.46;75.54;;
18377;Laerm;9315;52.624;13.544;2023-04-22T01:42:25;54.18;39.60;70.68;;
18377;Laerm;9315;52.624;13.544;2023-04-22T01:44:52;55.24;40.17;73.73;;
18377;Laerm;9315;52.624;13.544;2023-04-22T01:47:20;42.19;38.72;47.96;;
18377;Laerm;9315;52.624;13.544;2023-04-22T01:49:47;57.34;38.29;77.13;;
18377;Laerm;9315;52.624;13.544;2023-04-22T01:52:14;61.46;37.14;79.58;;
18377;Laerm;9315;52.624;13.544;2023-04-22T01:54:42;55.66;38.18;73.04;;
18377;Laerm;9315;52.624;13.544;2023-04-22T01:57:11;59.58;39.34;78.65;;
18377;Laerm;9315;52.624;13.544;2023-04-22T01:59:40;58.10;38.20;77.75;;
18377;Laerm;9315;52.624;13.544;2023-04-22T02:02:07;61.94;39.49;78.61;;
18377;Laerm;9315;52.624;13.544;2023-04-22T02:04:35;54.92;37.92;69.73;;
18377;Laerm;9315;52.624;13.544;2023-04-22T02:07:02;41.77;37.33;53.24;;
18377;Laerm;9315;52.624;13.544;2023-04-22T02:09:32;42.56;37.24;57.12;;
18377;Laerm;9315;52.624;13.544;2023-04-22T02:11:59;59.08;38.64;77.50;;
18377;Laerm;9315;52.624;13.544;2023-04-22T02:14:27;45.10;37.54;63.23;;
18377;Laerm;9315;52.624;13.544;2023-04-22T02:16:54;59.67;39.04;73.51;;
18377;Laerm;9315;52.624;13.544;2023-04-22T02:19:21;45.32;37.25;60.70;;
18377;Laerm;9315;52.624;13.544;2023-04-22T02:21:48;58.15;37.27;75.78;;
18377;Laerm;9315;52.624;13.544;2023-04-22T02:24:16;51.99;39.00;67.44;;
18377;Laerm;9315;52.624;13.544;2023-04-22T02:26:43;62.08;38.37;78.56;;
18377;Laerm;9315;52.624;13.544;2023-04-22T02:29:10;56.00;37.78;69.40;;
18377;Laerm;9315;52.624;13.544;2023-04-22T02:31:37;62.40;38.39;76.80;;
18377;Laerm;9315;52.624;13.544;2023-04-22T02:34:05;60.93;39.50;75.00;;
18377;Laerm;9315;52.624;13.544;2023-04-22T02:36:32;53.81;39.16;69.90;;
18377;Laerm;9315;52.624;13.544;2023-04-22T02:39:03;57.55;38.75;71.35;;
18377;Laerm;9315;52.624;13.544;2023-04-22T02:41:31;52.03;38.94;67.38;;
18377;Laerm;9315;52.624;13.544;2023-04-22T02:43:58;50.89;39.74;65.21;;
18377;Laerm;9315;52.624;13.544;2023-04-22T02:46:26;61.18;39.50;77.26;;
18377;Laerm;9315;52.624;13.544;2023-04-22T02:48:53;56.35;39.41;71.50;;
18377;Laerm;9315;52.624;13.544;2023-04-22T02:51:20;50.63;38.69;64.74;;
18377;Laerm;9315;52.624;13.544;2023-04-22T02:53:47;54.63;39.89;69.91;;
18377;Laerm;9315;52.624;13.544;2023-04-22T02:56:14;62.22;41.14;79.30;;
18377;Laerm;9315;52.624;13.544;2023-04-22T02:58:41;64.65;42.96;81.16;;
18377;Laerm;9315;52.624;13.544;2023-04-22T03:01:09;48.64;40.41;62.01;;
18377;Laerm;9315;52.624;13.544;2023-04-22T03:03:36;58.88;40.46;74.45;;
18377;Laerm;9315;52.624;13.544;2023-04-22T03:06:03;60.61;40.99;82.29;;
18377;Laerm;9315;52.624;13.544;2023-04-22T03:08:33;58.81;41.70;72.78;;
18377;Laerm;9315;52.624;13.544;2023-04-22T03:11:00;60.51;41.63;76.35;;
18377;Laerm;9315;52.624;13.544;2023-04-22T03:13:27;62.61;41.39;78.38;;
18377;Laerm;9315;52.624;13.544;2023-04-22T03:15:54;62.37;41.09;78.77;;
18377;Laerm;9315;52.624;13.544;2023-04-22T03:18:21;62.60;41.84;73.65;;
18377;Laerm;9315;52.624;13.544;2023-04-22T03:20:49;60.42;42.18;74.06;;
18377;Laerm;9315;52.624;13.544;2023-04-22T03:23:16;64.47;42.67;81.69;;
18377;Laerm;9315;52.624;13.544;2023-04-22T03:25:43;62.46;42.99;75.45;;
18377;Laerm;9315;52.624;13.544;2023-04-22T03:28:10;59.16;42.23;78.89;;
18377;Laerm;9315;52.624;13.544;2023-04-22T03:30:37;62.72;42.09;78.05;;
18377;Laerm;9315;52.624;13.544;2023-04-22T03:33:04;64.72;41.41;77.65;;
18377;Laerm;9315;52.624;13.544;2023-04-22T03:35:31;61.57;42.07;75.58;;
18377;Laerm;9315;52.624;13.544;2023-04-22T03:37:58;64.99;43.45;80.64;;
18377;Laerm;9315;52.624;13.544;2023-04-22T03:40:25;61.94;42.81;77.02;;
18377;Laerm;9315;52.624;13.544;2023-04-22T03:42:52;63.29;42.34;78.21;;
18377;Laerm;9315;52.624;13.544;2023-04-22T03:45:19;64.49;44.87;77.17;;
18377;Laerm;9315;52.624;13.544;2023-04-22T03:47:47;63.62;44.28;74.88;;
18377;Laerm;9315;52.624;13.544;2023-04-22T03:50:14;63.00;44.03;76.33;;
18377;Laerm;9315;52.624;13.544;2023-04-22T03:52:41;63.90;43.79;82.63;;
18377;Laerm;9315;52.624;13.544;2023-04-22T03:55:09;60.90;42.29;75.01;;
18377;Laerm;9315;52.624;13.544;2023-04-22T03:57:36;60.41;42.96;74.60;;
18377;Laerm;9315;52.624;13.544;2023-04-22T04:00:04;59.83;42.68;73.82;;
18377;Laerm;9315;52.624;13.544;2023-04-22T04:02:31;61.84;43.60;76.27;;
18377;Laerm;9315;52.624;13.544;2023-04-22T04:04:58;60.86;43.35;75.81;;
18377;Laerm;9315;52.624;13.544;2023-04-22T04:07:27;63.18;44.73;76.80;;
18377;Laerm;9315;52.624;13.544;2023-04-22T04:09:56;63.17;42.82;76.37;;
18377;Laerm;9315;52.624;13.544;2023-04-22T04:12:23;66.55;44.40;82.39;;
18377;Laerm;9315;52.624;13.544;2023-04-22T04:14:50;63.73;44.18;74.84;;
18377;Laerm;9315;52.624;13.544;2023-04-22T04:17:17;61.27;42.55;74.65;;
18377;Laerm;9315;52.624;13.544;2023-04-22T04:19:44;64.79;44.28;78.78;;
18377;Laerm;9315;52.624;13.544;2023-04-22T04:22:11;65.07;44.27;80.34;;
18377;Laerm;9315;52.624;13.544;2023-04-22T04:24:39;60.52;43.33;77.24;;
18377;Laerm;9315;52.624;13.544;2023-04-22T04:27:08;63.49;43.81;77.64;;
18377;Laerm;9315;52.624;13.544;2023-04-22T04:29:38;65.47;44.73;81.58;;
18377;Laerm;9315;52.624;13.544;2023-04-22T04:32:07;63.02;44.34;78.82;;
18377;Laerm;9315;52.624;13.544;2023-04-22T04:34:36;68.34;44.88;88.80;;
18377;Laerm;9315;52.624;13.544;2023-04-22T04:37:06;60.40;43.31;72.74;;
18377;Laerm;9315;52.624;13.544;2023-04-22T04:39:33;63.94;43.63;78.03;;
18377;Laerm;9315;52.624;13.544;2023-04-22T04:42:00;65.10;44.09;79.51;;
18377;Laerm;9315;52.624;13.544;2023-04-22T04:44:27;63.95;44.51;80.58;;
18377;Laerm;9315;52.624;13.544;2023-04-22T04:46:57;64.37;44.91;75.49;;
18377;Laerm;9315;52.624;13.544;2023-04-22T04:49:25;65.79;43.45;76.53;;
18377;Laerm;9315;52.624;13.544;2023-04-22T04:51:54;60.21;44.39;75.38;;
18377;Laerm;9315;52.624;13.544;2023-04-22T04:54:21;65.90;43.29;82.97;;
18377;Laerm;9315;52.624;13.544;2023-04-22T04:56:49;62.85;43.71;78.43;;
18377;Laerm;9315;52.624;13.544;2023-04-22T04:59:16;60.83;42.47;77.67;;
18377;Laerm;9315;52.624;13.544;2023-04-22T05:01:44;61.38;42.85;76.31;;
18377;Laerm;9315;52.624;13.544;2023-04-22T05:04:11;63.33;45.33;75.24;;
18377;Laerm;9315;52.624;13.544;2023-04-22T05:06:38;63.46;43.89;77.08;;
18377;Laerm;9315;52.624;13.544;2023-04-22T05:09:06;61.93;44.72;75.89;;
18377;Laerm;9315;52.624;13.544;2023-04-22T05:11:34;65.05;44.85;76.58;;
18377;Laerm;9315;52.624;13.544;2023-04-22T05:14:02;65.86;44.14;80.95;;
18377;Laerm;9315;52.624;13.544;2023-04-22T05:16:29;67.49;44.37;78.28;;
18377;Laerm;9315;52.624;13.544;2023-04-22T05:18:56;66.57;44.87;80.29;;
18377;Laerm;9315;52.624;13.544;2023-04-22T05:21:23;70.02;45.85;86.46;;
18377;Laerm;9315;52.624;13.544;2023-04-22T05:23:51;56.37;43.55;72.12;;
18377;Laerm;9315;52.624;13.544;2023-04-22T05:26:18;65.08;44.80;79.02;;
18377;Laerm;9315;52.624;13.544;2023-04-22T05:28:45;60.66;44.10;73.80;;
18377;Laerm;9315;52.624;13.544;2023-04-22T05:31:12;67.49;44.97;83.42;;
18377;Laerm;9315;52.624;13.544;2023-04-22T05:33:39;65.81;44.44;79.03;;
18377;Laerm;9315;52.624;13.544;2023-04-22T05:36:06;68.34;45.58;82.75;;
18377;Laerm;9315;52.624;13.544;2023-04-22T05:38:33;71.20;45.28;91.13;;
18377;Laerm;9315;52.624;13.544;2023-04-22T05:41:01;64.49;43.62;76.06;;
18377;Laerm;9315;52.624;13.544;2023-04-22T05:43:28;66.87;43.15;78.31;;
18377;Laerm;9315;52.624;13.544;2023-04-22T05:45:55;64.02;44.33;76.80;;
18377;Laerm;9315;52.624;13.544;2023-04-22T05:48:23;61.94;44.23;72.95;;
18377;Laerm;9315;52.624;13.544;2023-04-22T05:50:50;61.40;43.83;76.61;;
18377;Laerm;9315;52.624;13.544;2023-04-22T05:53:17;64.10;43.08;75.59;;
18377;Laerm;9315;52.624;13.544;2023-04-22T05:55:44;64.66;44.08;77.49;;
18377;Laerm;9315;52.624;13.544;2023-04-22T05:58:11;65.89;45.05;77.31;;
18377;Laerm;9315;52.624;13.544;2023-04-22T06:00:38;65.67;43.61;77.17;;
18377;Laerm;9315;52.624;13.544;2023-04-22T06:03:06;65.49;41.91;75.66;;
18377;Laerm;9315;52.624;13.544;2023-04-22T06:05:33;68.90;43.39;82.49;;
18377;Laerm;9315;52.624;13.544;2023-04-22T06:08:01;66.58;43.24;77.94;;
18377;Laerm;9315;52.624;13.544;2023-04-22T06:10:28;65.52;42.80;76.48;;
18377;Laerm;9315;52.624;13.544;2023-04-22T06:12:55;66.36;44.38;75.69;;
18377;Laerm;9315;52.624;13.544;2023-04-22T06:15:22;66.38;43.25;75.77;;
18377;Laerm;9315;52.624;13.544;2023-04-22T06:17:53;65.69;42.31;79.01;;
18377;Laerm;9315;52.624;13.544;2023-04-22T06:20:21;67.11;41.80;77.32;;
18377;Laerm;9315;52.624;13.544;2023-04-22T06:22:49;66.47;41.77;77.73;;
18377;Laerm;9315;52.624;13.544;2023-04-22T06:25:16;66.23;41.30;79.28;;
18377;Laerm;9315;52.624;13.544;2023-04-22T06:27:44;65.18;38.80;77.55;;
18377;Laerm;9315;52.624;13.544;2023-04-22T06:30:11;66.37;42.45;77.54;;
18377;Laerm;9315;52.624;13.544;2023-04-22T06:32:38;68.65;41.28;78.61;;
18377;Laerm;9315;52.624;13.544;2023-04-22T06:35:07;65.76;42.57;77.89;;
18377;Laerm;9315;52.624;13.544;2023-04-22T06:37:34;66.77;42.65;77.85;;
18377;Laerm;9315;52.624;13.544;2023-04-22T06:40:01;65.09;41.31;74.72;;
18377;Laerm;9315;52.624;13.544;2023-04-22T06:42:29;69.71;43.59;83.67;;
18377;Laerm;9315;52.624;13.544;2023-04-22T06:44:58;67.79;41.38;76.40;;
18377;Laerm;9315;52.624;13.544;2023-04-22T06:47:25;67.25;43.43;75.97;;
18377;Laerm;9315;52.624;13.544;2023-04-22T06:49:52;68.20;43.19;77.32;;
18377;Laerm;9315;52.624;13.544;2023-04-22T06:52:20;67.56;41.75;80.46;;
18377;Laerm;9315;52.624;13.544;2023-04-22T06:54:49;67.32;41.15;79.81;;
18377;Laerm;9315;52.624;13.544;2023-04-22T06:57:17;68.88;44.56;78.89;;
18377;Laerm;9315;52.624;13.544;2023-04-22T06:59:44;84.68;47.91;107.84;;
18377;Laerm;9315;52.624;13.544;2023-04-22T07:02:13;65.37;42.71;75.32;;
18377;Laerm;9315;52.624;13.544;2023-04-22T07:04:40;66.79;42.16;77.51;;
18377;Laerm;9315;52.624;13.544;2023-04-22T07:07:08;67.88;40.64;78.68;;
18377;Laerm;9315;52.624;13.544;2023-04-22T07:09:35;68.76;44.33;77.54;;
18377;Laerm;9315;52.624;13.544;2023-04-22T07:12:03;69.04;46.03;78.51;;
18377;Laerm;9315;52.624;13.544;2023-04-22T07:14:30;65.23;41.63;77.40;;
18377;Laerm;9315;52.624;13.544;2023-04-22T07:16:59;67.23;39.72;75.96;;
18377;Laerm;9315;52.624;13.544;2023-04-22T07:19:28;68.75;41.38;77.14;;
18377;Laerm;9315;52.624;13.544;2023-04-22T07:22:01;67.47;41.04;77.11;;
18377;Laerm;9315;52.624;13.544;2023-04-22T07:24:29;68.88;42.59;80.36;;
18377;Laerm;9315;52.624;13.544;2023-04-22T07:26:56;68.38;44.93;77.07;;
18377;Laerm;9315;52.624;13.544;2023-04-22T07:29:24;68.14;46.83;78.07;;
18377;Laerm;9315;52.624;13.544;2023-04-22T07:31:51;69.97;43.22;80.98;;
18377;Laerm;9315;52.624;13.544;2023-04-22T07:34:18;65.06;39.88;75.59;;
18377;Laerm;9315;52.624;13.544;2023-04-22T07:36:45;69.92;43.18;79.93;;
18377;Laerm;9315;52.624;13.544;2023-04-22T07:39:12;68.63;44.28;78.73;;
18377;Laerm;9315;52.624;13.544;2023-04-22T07:41:39;67.52;44.02;77.17;;
18377;Laerm;9315;52.624;13.544;2023-04-22T07:44:07;67.68;42.91;77.23;;
18377;Laerm;9315;52.624;13.544;2023-04-22T07:46:36;66.47;46.51;74.77;;
18377;Laerm;9315;52.624;13.544;2023-04-22T07:49:03;68.52;45.00;77.28;;
18377;Laerm;9315;52.624;13.544;2023-04-22T07:51:32;69.24;41.12;79.43;;
18377;Laerm;9315;52.624;13.544;2023-04-22T07:53:59;69.64;43.37;81.16;;
18377;Laerm;9315;52.624;13.544;2023-04-22T07:56:26;69.14;51.63;78.55;;
18377;Laerm;9315;52.624;13.544;2023-04-22T07:58:53;68.89;42.98;80.72;;
18377;Laerm;9315;52.624;13.544;2023-04-22T08:01:20;68.34;44.84;79.79;;
18377;Laerm;9315;52.624;13.544;2023-04-22T08:03:47;67.81;39.06;76.50;;
18377;Laerm;9315;52.624;13.544;2023-04-22T08:06:15;68.43;47.70;76.98;;
18377;Laerm;9315;52.624;13.544;2023-04-22T08:08:43;68.55;43.45;79.45;;
18377;Laerm;9315;52.624;13.544;2023-04-22T08:11:11;67.43;45.86;83.65;;
18377;Laerm;9315;52.624;13.544;2023-04-22T08:13:39;68.44;48.94;76.60;;
18377;Laerm;9315;52.624;13.544;2023-04-22T08:16:06;67.00;43.94;76.44;;
18377;Laerm;9315;52.624;13.544;2023-04-22T08:18:34;70.10;39.87;95.65;;
18377;Laerm;9315;52.624;13.544;2023-04-22T08:21:02;66.93;39.99;76.79;;
18377;Laerm;9315;52.624;13.544;2023-04-22T08:23:29;66.14;43.49;76.87;;
18377;Laerm;9315;52.624;13.544;2023-04-22T08:25:56;66.60;45.47;75.54;;
18377;Laerm;9315;52.624;13.544;2023-04-22T08:28:23;65.16;43.00;76.15;;
18377;Laerm;9315;52.624;13.544;2023-04-22T08:30:50;68.81;43.16;77.93;;
18377;Laerm;9315;52.624;13.544;2023-04-22T08:33:18;68.01;42.45;78.26;;
18377;Laerm;9315;52.624;13.544;2023-04-22T08:35:48;69.06;46.75;78.09;;
18377;Laerm;9315;52.624;13.544;2023-04-22T08:38:16;68.71;46.99;76.87;;
18377;Laerm;9315;52.624;13.544;2023-04-22T08:40:43;69.01;44.78;78.97;;
18377;Laerm;9315;52.624;13.544;2023-04-22T08:43:11;68.97;40.43;79.20;;
18377;Laerm;9315;52.624;13.544;2023-04-22T08:45:39;68.48;45.91;81.69;;
18377;Laerm;9315;52.624;13.544;2023-04-22T08:48:10;69.22;49.08;79.37;;
18377;Laerm;9315;52.624;13.544;2023-04-22T08:50:38;68.58;42.26;86.37;;
18377;Laerm;9315;52.624;13.544;2023-04-22T08:53:05;67.80;47.28;76.22;;
18377;Laerm;9315;52.624;13.544;2023-04-22T08:55:35;68.32;44.78;76.57;;
18377;Laerm;9315;52.624;13.544;2023-04-22T08:58:03;67.49;43.72;78.61;;
18377;Laerm;9315;52.624;13.544;2023-04-22T09:00:32;68.15;42.08;76.72;;
18377;Laerm;9315;52.624;13.544;2023-04-22T09:03:02;70.08;46.67;80.90;;
18377;Laerm;9315;52.624;13.544;2023-04-22T09:05:38;68.11;48.74;76.23;;
18377;Laerm;9315;52.624;13.544;2023-04-22T09:08:06;67.73;45.13;77.99;;
18377;Laerm;9315;52.624;13.544;2023-04-22T09:10:38;68.81;46.29;83.31;;
18377;Laerm;9315;52.624;13.544;2023-04-22T09:13:08;68.93;42.51;82.88;;
18377;Laerm;9315;52.624;13.544;2023-04-22T09:15:36;69.00;41.15;86.58;;
18377;Laerm;9315;52.624;13.544;2023-04-22T09:18:03;68.50;47.28;81.03;;
18377;Laerm;9315;52.624;13.544;2023-04-22T09:20:31;68.22;46.20;77.34;;
18377;Laerm;9315;52.624;13.544;2023-04-22T09:23:03;70.63;44.17;88.94;;
18377;Laerm;9315;52.624;13.544;2023-04-22T09:25:33;68.52;40.55;77.60;;
18377;Laerm;9315;52.624;13.544;2023-04-22T09:28:03;79.13;40.85;103.25;;
18377;Laerm;9315;52.624;13.544;2023-04-22T09:30:35;67.31;41.66;78.31;;
18377;Laerm;9315;52.624;13.544;2023-04-22T09:33:06;68.82;48.07;78.68;;
18377;Laerm;9315;52.624;13.544;2023-04-22T09:35:39;66.59;41.94;75.13;;
18377;Laerm;9315;52.624;13.544;2023-04-22T09:38:10;66.32;41.67;76.23;;
18377;Laerm;9315;52.624;13.544;2023-04-22T09:40:42;67.20;40.48;78.09;;
18377;Laerm;9315;52.624;13.544;2023-04-22T09:43:19;68.56;43.09;81.06;;
18377;Laerm;9315;52.624;13.544;2023-04-22T09:45:46;67.80;44.56;75.75;;
18377;Laerm;9315;52.624;13.544;2023-04-22T09:48:17;65.98;41.74;78.53;;
18377;Laerm;9315;52.624;13.544;2023-04-22T09:50:50;70.21;45.75;83.52;;
18377;Laerm;9315;52.624;13.544;2023-04-22T09:53:19;67.43;43.07;78.46;;
18377;Laerm;9315;52.624;13.544;2023-04-22T09:55:56;68.48;48.03;78.92;;
18377;Laerm;9315;52.624;13.544;2023-04-22T09:58:23;67.80;41.99;77.65;;
18377;Laerm;9315;52.624;13.544;2023-04-22T10:00:56;66.77;40.73;76.94;;
18377;Laerm;9315;52.624;13.544;2023-04-22T10:03:25;68.96;46.47;78.22;;
18377;Laerm;9315;52.624;13.544;2023-04-22T10:05:52;66.81;42.80;80.29;;
18377;Laerm;9315;52.624;13.544;2023-04-22T10:08:19;72.67;42.64;91.86;;
18377;Laerm;9315;52.624;13.544;2023-04-22T10:10:46;68.35;43.74;77.59;;
18377;Laerm;9315;52.624;13.544;2023-04-22T10:13:14;68.48;40.49;88.60;;
18377;Laerm;9315;52.624;13.544;2023-04-22T10:15:53;70.30;49.44;85.48;;
18377;Laerm;9315;52.624;13.544;2023-04-22T10:18:27;67.52;44.24;78.67;;
18377;Laerm;9315;52.624;13.544;2023-04-22T10:20:56;68.07;45.50;76.24;;
18377;Laerm;9315;52.624;13.544;2023-04-22T10:23:24;67.83;43.89;78.27;;
18377;Laerm;9315;52.624;13.544;2023-04-22T10:25:55;67.07;45.85;78.21;;
18377;Laerm;9315;52.624;13.544;2023-04-22T10:28:28;68.79;49.97;81.12;;
18377;Laerm;9315;52.624;13.544;2023-04-22T10:30:56;70.44;49.09;86.37;;
18377;Laerm;9315;52.624;13.544;2023-04-22T10:36:18;65.93;45.21;76.14;;
18377;Laerm;9315;52.624;13.544;2023-04-22T10:41:30;68.26;47.66;80.12;;
18377;Laerm;9315;52.624;13.544;2023-04-22T10:44:09;66.75;50.84;74.45;;
18377;Laerm;9315;52.624;13.544;2023-04-22T10:49:13;67.58;46.64;80.81;;
18377;Laerm;9315;52.624;13.544;2023-04-22T10:51:56;67.88;44.92;77.31;;
18377;Laerm;9315;52.624;13.544;2023-04-22T10:59:51;68.77;43.11;80.64;;
18377;Laerm;9315;52.624;13.544;2023-04-22T11:02:20;66.46;42.60;75.60;;
18377;Laerm;9315;52.624;13.544;2023-04-22T11:04:49;68.93;49.25;83.18;;
18377;Laerm;9315;52.624;13.544;2023-04-22T11:15:17;66.04;47.42;76.31;;
18377;Laerm;9315;52.624;13.544;2023-04-22T11:17:50;68.51;45.24;76.69;;
18377;Laerm;9315;52.624;13.544;2023-04-22T11:20:21;67.83;43.06;77.93;;
18377;Laerm;9315;52.624;13.544;2023-04-22T11:22:54;67.17;45.57;77.31;;
18377;Laerm;9315;52.624;13.544;2023-04-22T11:25:24;66.08;43.14;78.29;;
18377;Laerm;9315;52.624;13.544;2023-04-22T11:27:52;68.35;42.63;77.70;;
18377;Laerm;9315;52.624;13.544;2023-04-22T11:30:23;65.24;42.50;74.50;;
18377;Laerm;9315;52.624;13.544;2023-04-22T11:32:55;68.21;45.49;82.24;;
18377;Laerm;9315;52.624;13.544;2023-04-22T11:35:34;69.09;47.81;81.50;;
18377;Laerm;9315;52.624;13.544;2023-04-22T11:38:05;68.39;42.38;80.51;;
18377;Laerm;9315;52.624;13.544;2023-04-22T11:40:41;67.85;45.87;77.36;;
18377;Laerm;9315;52.624;13.544;2023-04-22T11:43:13;67.40;45.83;76.96;;
18377;Laerm;9315;52.624;13.544;2023-04-22T11:45:40;69.43;40.99;83.81;;
18377;Laerm;9315;52.624;13.544;2023-04-22T11:48:09;67.60;42.20;78.51;;
18377;Laerm;9315;52.624;13.544;2023-04-22T11:50:40;68.79;43.53;80.02;;
18377;Laerm;9315;52.624;13.544;2023-04-22T11:53:19;67.31;46.03;78.80;;
18377;Laerm;9315;52.624;13.544;2023-04-22T11:55:50;66.18;43.64;76.51;;
18377;Laerm;9315;52.624;13.544;2023-04-22T11:58:26;66.72;42.93;76.16;;
18377;Laerm;9315;52.624;13.544;2023-04-22T12:00:59;67.63;45.38;77.83;;
18377;Laerm;9315;52.624;13.544;2023-04-22T12:03:29;69.24;46.59;85.93;;
18377;Laerm;9315;52.624;13.544;2023-04-22T12:06:03;67.46;45.41;78.45;;
18377;Laerm;9315;52.624;13.544;2023-04-22T12:08:38;69.11;45.62;83.31;;
18377;Laerm;9315;52.624;13.544;2023-04-22T12:11:11;66.67;45.54;75.11;;
18377;Laerm;9315;52.624;13.544;2023-04-22T12:16:17;66.03;43.74;75.20;;
18377;Laerm;9315;52.624;13.544;2023-04-22T12:18:54;67.89;44.56;76.53;;
18377;Laerm;9315;52.624;13.544;2023-04-22T12:21:24;69.39;51.01;82.64;;
18377;Laerm;9315;52.624;13.544;2023-04-22T12:24:10;69.06;49.52;87.28;;
18377;Laerm;9315;52.624;13.544;2023-04-22T12:26:40;66.74;45.16;74.55;;
18377;Laerm;9315;52.624;13.544;2023-04-22T12:29:08;68.85;46.45;81.59;;
18377;Laerm;9315;52.624;13.544;2023-04-22T12:31:36;68.15;43.91;81.18;;
18377;Laerm;9315;52.624;13.544;2023-04-22T12:34:04;69.53;46.86;81.86;;
18377;Laerm;9315;52.624;13.544;2023-04-22T12:36:35;67.61;44.71;76.90;;
18377;Laerm;9315;52.624;13.544;2023-04-22T12:39:02;67.82;43.45;79.86;;
18377;Laerm;9315;52.624;13.544;2023-04-22T12:41:32;68.06;40.81;76.80;;
18377;Laerm;9315;52.624;13.544;2023-04-22T12:44:02;67.13;43.24;76.83;;
18377;Laerm;9315;52.624;13.544;2023-04-22T12:46:29;67.92;46.74;77.88;;
18377;Laerm;9315;52.624;13.544;2023-04-22T12:48:56;68.94;46.01;77.81;;
18377;Laerm;9315;52.624;13.544;2023-04-22T12:51:24;67.50;48.43;76.21;;
18377;Laerm;9315;52.624;13.544;2023-04-22T12:53:57;68.31;45.55;79.51;;
18377;Laerm;9315;52.624;13.544;2023-04-22T12:56:25;67.43;41.09;86.95;;
18377;Laerm;9315;52.624;13.544;2023-04-22T12:58:54;68.33;42.84;83.24;;
18377;Laerm;9315;52.624;13.544;2023-04-22T13:01:24;68.99;48.56;76.60;;
18377;Laerm;9315;52.624;13.544;2023-04-22T13:03:52;68.15;43.22;85.05;;
18377;Laerm;9315;52.624;13.544;2023-04-22T13:06:22;68.46;47.27;79.29;;
18377;Laerm;9315;52.624;13.544;2023-04-22T13:08:50;66.92;46.72;74.93;;
18377;Laerm;9315;52.624;13.544;2023-04-22T13:11:18;67.42;45.82;78.85;;
18377;Laerm;9315;52.624;13.544;2023-04-22T13:13:45;68.41;45.10;78.78;;
18377;Laerm;9315;52.624;13.544;2023-04-22T13:16:12;67.00;43.95;76.32;;
18377;Laerm;9315;52.624;13.544;2023-04-22T13:18:41;67.08;43.94;77.51;;
18377;Laerm;9315;52.624;13.544;2023-04-22T13:21:11;69.12;40.86;84.51;;
18377;Laerm;9315;52.624;13.544;2023-04-22T13:23:40;66.00;42.29;75.62;;
18377;Laerm;9315;52.624;13.544;2023-04-22T13:26:11;67.24;48.36;76.73;;
18377;Laerm;9315;52.624;13.544;2023-04-22T13:28:39;70.33;46.99;85.27;;
18377;Laerm;9315;52.624;13.544;2023-04-22T13:31:06;67.07;45.76;79.25;;
18377;Laerm;9315;52.624;13.544;2023-04-22T13:33:33;67.97;47.04;79.90;;
18377;Laerm;9315;52.624;13.544;2023-04-22T13:36:00;68.62;46.67;81.00;;
18377;Laerm;9315;52.624;13.544;2023-04-22T13:38:28;65.62;48.63;75.29;;
18377;Laerm;9315;52.624;13.544;2023-04-22T13:40:55;65.95;45.12;76.22;;
18377;Laerm;9315;52.624;13.544;2023-04-22T13:43:22;68.08;42.72;79.01;;
18377;Laerm;9315;52.624;13.544;2023-04-22T13:45:49;69.23;48.89;81.54;;
18377;Laerm;9315;52.624;13.544;2023-04-22T13:48:17;68.27;47.58;79.80;;
18377;Laerm;9315;52.624;13.544;2023-04-22T13:50:57;66.18;44.11;76.16;;
18377;Laerm;9315;52.624;13.544;2023-04-22T13:53:24;68.18;45.62;76.08;;
18377;Laerm;9315;52.624;13.544;2023-04-22T13:55:52;68.37;48.34;77.18;;
18377;Laerm;9315;52.624;13.544;2023-04-22T13:58:19;67.02;41.07;79.54;;
18377;Laerm;9315;52.624;13.544;2023-04-22T14:00:46;66.14;44.57;75.70;;
18377;Laerm;9315;52.624;13.544;2023-04-22T14:03:13;65.74;48.79;75.13;;
18377;Laerm;9315;52.624;13.544;2023-04-22T14:05:41;68.63;47.50;79.46;;
18377;Laerm;9315;52.624;13.544;2023-04-22T14:08:08;67.01;44.72;75.58;;
18377;Laerm;9315;52.624;13.544;2023-04-22T14:10:35;66.39;42.40;77.57;;
18377;Laerm;9315;52.624;13.544;2023-04-22T14:13:03;69.12;48.16;81.05;;
18377;Laerm;9315;52.624;13.544;2023-04-22T14:15:30;65.36;39.13;80.73;;